createdAt,value
2023-03-24T00:01:08.010Z,2.35
2023-03-24T00:03:36.516Z,2.28
2023-03-24T00:06:05.838Z,2.38
2023-03-24T00:08:36.884Z,2.50
2023-03-24T00:11:07.508Z,2.33
2023-03-24T00:13:38.878Z,2.35
2023-03-24T00:16:12.692Z,2.22
2023-03-24T00:21:11.611Z,1.60
2023-03-24T00:23:38.794Z,2.50
2023-03-24T00:26:15.368Z,3.13
2023-03-24T00:28:51.554Z,3.10
2023-03-24T00:31:19.053Z,2.85
2023-03-24T00:33:51.416Z,2.70
2023-03-24T00:36:22.146Z,2.78
2023-03-24T00:38:50.176Z,2.40
2023-03-24T00:41:19.821Z,2.10
2023-03-24T00:43:49.360Z,2.17
2023-03-24T00:46:27.424Z,2.00
2023-03-24T00:49:05.913Z,1.67
2023-03-24T00:51:40.458Z,1.83
2023-03-24T00:54:10.580Z,2.15
2023-03-24T00:56:41.054Z,1.80
2023-03-24T00:59:10.489Z,2.00
2023-03-24T01:01:40.869Z,1.77
2023-03-24T01:04:07.849Z,1.35
2023-03-24T01:06:37.338Z,1.33
2023-03-24T01:09:06.781Z,1.55
2023-03-24T01:11:40.194Z,1.55
2023-03-24T01:14:09.796Z,1.38
2023-03-24T01:16:37.851Z,1.52
2023-03-24T01:19:05.406Z,1.50
2023-03-24T01:21:36.037Z,1.60
2023-03-24T01:24:05.110Z,1.30
2023-03-24T01:26:32.140Z,1.42
2023-03-24T01:28:58.918Z,1.15
2023-03-24T01:31:26.100Z,1.63
2023-03-24T01:33:52.947Z,1.38
2023-03-24T01:36:19.753Z,1.50
2023-03-24T01:38:46.491Z,1.58
2023-03-24T01:41:13.274Z,1.50
2023-03-24T01:43:40.065Z,1.58
2023-03-24T01:46:21.805Z,1.85
2023-03-24T01:49:02.122Z,1.48
2023-03-24T01:51:37.684Z,1.60
2023-03-24T01:54:18.209Z,1.52
2023-03-24T01:56:59.876Z,1.45
2023-03-24T01:59:32.280Z,1.60
2023-03-24T02:02:03.791Z,1.63
2023-03-24T02:04:38.755Z,1.45
2023-03-24T02:07:41.533Z,1.50
2023-03-24T02:10:14.532Z,1.38
2023-03-24T02:12:43.483Z,1.50
2023-03-24T02:15:13.546Z,1.40
2023-03-24T02:18:19.195Z,1.27
2023-03-24T02:21:29.323Z,1.63
2023-03-24T02:24:45.765Z,1.27
2023-03-24T02:27:33.466Z,1.60
2023-03-24T02:30:35.070Z,1.50
2023-03-24T02:33:38.536Z,1.45
2023-03-24T02:36:42.355Z,1.30
2023-03-24T02:39:47.551Z,1.27
2023-03-24T02:42:55.635Z,1.20
2023-03-24T02:46:00.608Z,1.30
2023-03-24T02:48:46.688Z,1.20
2023-03-24T02:51:25.885Z,1.48
2023-03-24T02:54:14.026Z,1.30
2023-03-24T02:56:53.972Z,1.33
2023-03-24T02:59:49.356Z,1.15
2023-03-24T03:02:23.573Z,1.23
2023-03-24T03:05:13.895Z,1.38
2023-03-24T03:07:44.648Z,1.40
2023-03-24T03:10:23.911Z,1.40
2023-03-24T03:12:57.164Z,1.20
2023-03-24T03:15:32.966Z,1.45
2023-03-24T03:18:30.995Z,1.38
2023-03-24T03:21:09.584Z,1.45
2023-03-24T03:23:43.740Z,1.60
2023-03-24T03:26:17.644Z,1.30
2023-03-24T03:31:34.240Z,1.23
2023-03-24T03:34:37.650Z,1.23
2023-03-24T03:38:07.308Z,1.30
2023-03-24T03:40:49.577Z,1.40
2023-03-24T03:43:17.082Z,1.33
2023-03-24T03:45:44.445Z,1.20
2023-03-24T03:48:11.689Z,1.50
2023-03-24T03:50:39.080Z,1.70
2023-03-24T03:53:07.683Z,1.70
2023-03-24T03:55:35.488Z,1.33
2023-03-24T03:58:04.700Z,1.40
2023-03-24T04:00:32.071Z,1.42
2023-03-24T04:03:22.292Z,1.25
2023-03-24T04:06:31.899Z,1.67
2023-03-24T04:09:36.613Z,1.33
2023-03-24T04:12:48.105Z,1.40
2023-03-24T04:15:41.023Z,1.50
2023-03-24T04:18:31.806Z,1.58
2023-03-24T04:21:06.951Z,1.60
2023-03-24T04:23:54.292Z,1.80
2023-03-24T04:27:12.974Z,1.58
2023-03-24T04:30:16.956Z,1.95
2023-03-24T04:32:58.358Z,1.30
2023-03-24T04:35:34.393Z,1.70
2023-03-24T04:38:09.262Z,1.70
2023-03-24T04:40:42.030Z,1.80
2023-03-24T04:43:17.086Z,1.90
2023-03-24T04:45:49.612Z,1.50
2023-03-24T04:48:18.894Z,1.77
2023-03-24T04:50:56.412Z,1.85
2023-03-24T04:53:24.080Z,2.03
2023-03-24T04:55:50.843Z,2.08
2023-03-24T04:58:20.659Z,2.20
2023-03-24T05:00:49.236Z,2.28
2023-03-24T05:03:17.918Z,2.17
2023-03-24T05:05:48.246Z,2.28
2023-03-24T05:08:17.118Z,2.13
2023-03-24T05:10:43.921Z,2.17
2023-03-24T05:13:11.372Z,2.60
2023-03-24T05:15:38.185Z,2.47
2023-03-24T05:18:06.117Z,2.15
2023-03-24T05:20:32.942Z,2.13
2023-03-24T05:22:59.738Z,1.95
2023-03-24T05:25:26.542Z,2.45
2023-03-24T05:27:53.332Z,1.98
2023-03-24T05:30:21.126Z,2.00
2023-03-24T05:32:47.880Z,2.70
2023-03-24T05:35:14.824Z,2.47
2023-03-24T05:37:41.746Z,2.30
2023-03-24T05:40:09.513Z,2.25
2023-03-24T05:42:36.398Z,2.25
2023-03-24T05:45:04.337Z,2.50
2023-03-24T05:47:31.390Z,2.33
2023-03-24T05:49:58.172Z,2.28
2023-03-24T05:52:27.399Z,2.30
2023-03-24T05:54:55.625Z,2.50
2023-03-24T05:57:22.657Z,2.33
2023-03-24T05:59:49.444Z,2.03
2023-03-24T06:02:16.305Z,2.70
2023-03-24T06:04:49.098Z,2.20
2023-03-24T06:07:16.665Z,1.98
2023-03-24T06:09:46.989Z,2.72
2023-03-24T06:12:16.087Z,2.38
2023-03-24T06:14:43.110Z,2.33
2023-03-24T06:17:14.531Z,2.45
2023-03-24T06:19:48.805Z,2.45
2023-03-24T06:22:17.831Z,2.10
2023-03-24T06:24:45.289Z,2.20
2023-03-24T06:27:14.137Z,2.35
2023-03-24T06:29:42.463Z,2.28
2023-03-24T06:32:10.802Z,2.25
2023-03-24T06:34:39.766Z,2.33
2023-03-24T06:37:06.516Z,2.35
2023-03-24T06:39:33.309Z,2.30
2023-03-24T06:42:00.126Z,2.13
2023-03-24T06:44:27.036Z,2.58
2023-03-24T06:46:53.897Z,2.28
2023-03-24T06:49:20.978Z,2.47
2023-03-24T06:51:47.768Z,2.38
2023-03-24T06:54:14.556Z,2.08
2023-03-24T06:56:41.784Z,2.50
2023-03-24T06:59:08.946Z,2.50
2023-03-24T07:01:37.775Z,2.55
2023-03-24T07:04:05.234Z,2.30
2023-03-24T07:06:33.190Z,2.47
2023-03-24T07:09:02.744Z,2.30
2023-03-24T07:11:29.509Z,2.38
2023-03-24T07:13:56.497Z,2.53
2023-03-24T07:16:23.381Z,2.28
2023-03-24T07:18:51.280Z,2.35
2023-03-24T07:21:18.409Z,2.42
2023-03-24T07:23:46.106Z,2.25
2023-03-24T07:26:12.950Z,2.10
2023-03-24T07:28:39.878Z,2.25
2023-03-24T07:31:10.873Z,2.47
2023-03-24T07:33:38.333Z,2.30
2023-03-24T07:36:07.619Z,2.40
2023-03-24T07:38:34.946Z,2.60
2023-03-24T07:41:02.458Z,2.38
2023-03-24T07:43:29.240Z,2.42
2023-03-24T07:45:56.007Z,2.30
2023-03-24T07:48:22.757Z,2.70
2023-03-24T07:50:49.633Z,2.70
2023-03-24T07:53:19.953Z,2.30
2023-03-24T07:55:47.024Z,2.28
2023-03-24T07:58:13.896Z,2.20
2023-03-24T08:00:41.919Z,2.47
2023-03-24T08:03:15.459Z,2.08
2023-03-24T08:05:44.234Z,2.15
2023-03-24T08:08:11.012Z,2.13
2023-03-24T08:10:37.844Z,2.30
2023-03-24T08:13:04.689Z,2.03
2023-03-24T08:15:31.717Z,2.28
2023-03-24T08:17:58.579Z,2.25
2023-03-24T08:20:27.329Z,2.10
2023-03-24T08:22:54.474Z,2.33
2023-03-24T08:25:25.726Z,2.33
2023-03-24T08:27:53.617Z,2.20
2023-03-24T08:30:28.239Z,2.60
2023-03-24T08:33:01.010Z,2.53
2023-03-24T08:35:34.983Z,2.10
2023-03-24T08:38:06.596Z,2.33
2023-03-24T08:40:36.595Z,2.90
2023-03-24T08:43:10.716Z,2.35
2023-03-24T08:45:38.681Z,2.97
2023-03-24T08:48:08.474Z,2.72
2023-03-24T08:50:40.114Z,2.50
2023-03-24T08:53:08.136Z,2.40
2023-03-24T08:55:37.237Z,2.40
2023-03-24T08:58:04.033Z,2.20
2023-03-24T09:00:31.308Z,2.40
2023-03-24T09:02:58.636Z,2.63
2023-03-24T09:05:40.789Z,2.50
2023-03-24T09:08:11.432Z,2.72
2023-03-24T09:13:07.585Z,2.70
2023-03-24T09:15:34.614Z,2.40
2023-03-24T09:18:02.884Z,2.60
2023-03-24T09:20:29.797Z,2.20
2023-03-24T09:22:56.727Z,2.15
2023-03-24T09:25:23.981Z,2.58
2023-03-24T09:27:50.849Z,2.42
2023-03-24T09:30:18.646Z,2.42
2023-03-24T09:32:46.230Z,2.70
2023-03-24T09:35:14.159Z,2.42
2023-03-24T09:37:43.242Z,2.28
2023-03-24T09:40:27.280Z,2.30
2023-03-24T09:43:16.191Z,2.50
2023-03-24T09:45:59.190Z,2.75
2023-03-24T09:48:41.272Z,2.55
2023-03-24T09:51:21.545Z,2.50
2023-03-24T09:54:00.552Z,2.40
2023-03-24T09:56:29.847Z,2.78
2023-03-24T09:59:04.954Z,2.28
2023-03-24T10:01:31.890Z,2.53
2023-03-24T10:04:00.523Z,2.70
2023-03-24T10:06:33.689Z,3.30
2023-03-24T10:09:24.680Z,4.47
2023-03-24T10:12:39.663Z,3.30
2023-03-24T10:18:36.952Z,2.40
2023-03-24T10:21:27.741Z,1.80
2023-03-24T10:24:15.444Z,2.10
2023-03-24T10:27:02.695Z,2.30
2023-03-24T10:29:38.435Z,1.85
2023-03-24T10:32:24.890Z,2.05
2023-03-24T10:35:00.417Z,2.30
2023-03-24T10:37:31.313Z,2.35
2023-03-24T10:40:16.681Z,2.83
2023-03-24T10:42:46.611Z,2.25
2023-03-24T10:45:25.818Z,1.83
2023-03-24T10:47:57.146Z,2.40
2023-03-24T10:50:29.148Z,2.25
2023-03-24T10:52:56.972Z,2.78
2023-03-24T10:55:32.128Z,2.30
2023-03-24T10:58:00.517Z,2.40
2023-03-24T11:00:31.878Z,2.10
2023-03-24T11:03:18.014Z,2.00
2023-03-24T11:05:46.112Z,2.30
2023-03-24T11:08:33.866Z,2.05
2023-03-24T11:11:00.708Z,3.22
2023-03-24T11:13:34.460Z,1.80
2023-03-24T11:19:05.293Z,1.98
2023-03-24T11:21:37.010Z,1.52
2023-03-24T11:24:12.257Z,1.80
2023-03-24T11:26:41.258Z,1.83
2023-03-24T11:29:19.526Z,1.73
2023-03-24T11:31:57.304Z,1.52
2023-03-24T11:34:34.338Z,1.67
2023-03-24T11:37:13.822Z,1.85
2023-03-24T11:39:41.504Z,2.10
2023-03-24T11:42:11.840Z,2.17
2023-03-24T11:44:38.776Z,1.80
2023-03-24T11:47:19.884Z,1.60
2023-03-24T11:50:10.147Z,1.80
2023-03-24T11:53:01.472Z,2.17
2023-03-24T11:55:54.178Z,1.90
2023-03-24T11:58:44.275Z,1.90
2023-03-24T12:01:20.287Z,1.73
2023-03-24T12:04:18.641Z,1.60
2023-03-24T12:07:22.487Z,1.80
2023-03-24T12:10:11.149Z,2.83
2023-03-24T12:13:01.226Z,1.98
2023-03-24T12:15:46.867Z,1.70
2023-03-24T12:18:54.206Z,1.60
2023-03-24T12:22:28.145Z,1.33
2023-03-24T12:25:41.213Z,1.70
2023-03-24T12:28:10.979Z,1.52
2023-03-24T12:31:16.102Z,1.48
2023-03-24T12:34:17.624Z,1.40
2023-03-24T12:37:33.883Z,1.25
2023-03-24T12:41:04.815Z,1.63
2023-03-24T12:43:41.181Z,2.40
2023-03-24T12:46:46.798Z,1.98
2023-03-24T12:49:39.973Z,1.73
2023-03-24T12:52:38.122Z,1.60
2023-03-24T12:55:14.666Z,1.48
2023-03-24T12:57:50.063Z,1.42
2023-03-24T13:00:35.008Z,1.10
2023-03-24T13:03:11.556Z,1.30
2023-03-24T13:05:50.159Z,1.30
2023-03-24T13:08:29.681Z,1.35
2023-03-24T13:11:03.935Z,1.27
2023-03-24T13:13:38.106Z,1.40
2023-03-24T13:16:14.326Z,1.45
2023-03-24T13:18:54.752Z,1.30
2023-03-24T13:21:26.566Z,1.40
2023-03-24T13:24:09.358Z,1.33
2023-03-24T13:30:11.883Z,1.35
2023-03-24T13:32:47.549Z,1.40
2023-03-24T13:35:39.711Z,1.77
2023-03-24T13:38:20.792Z,1.40
2023-03-24T13:40:56.230Z,1.67
2023-03-24T13:43:31.665Z,1.80
2023-03-24T13:46:13.768Z,1.55
2023-03-24T13:48:55.362Z,1.70
2023-03-24T13:51:31.656Z,1.50
2023-03-24T13:54:07.139Z,1.60
2023-03-24T13:56:36.318Z,1.58
2023-03-24T13:59:03.165Z,1.35
2023-03-24T14:01:41.886Z,1.60
2023-03-24T14:04:27.893Z,1.80
2023-03-24T14:06:57.173Z,1.55
2023-03-24T14:09:31.133Z,1.40
2023-03-24T14:12:03.784Z,1.33
2023-03-24T14:14:34.460Z,1.35
2023-03-24T14:17:15.552Z,1.30
2023-03-24T14:20:02.045Z,1.15
2023-03-24T14:22:36.238Z,1.10
2023-03-24T14:25:16.721Z,1.30
2023-03-24T14:27:47.100Z,1.33
2023-03-24T14:30:25.024Z,1.40
2023-03-24T14:33:01.734Z,1.70
2023-03-24T14:35:44.233Z,1.30
2023-03-24T14:38:19.832Z,1.40
2023-03-24T14:41:00.107Z,1.30
2023-03-24T14:43:39.111Z,1.20
2023-03-24T14:46:38.829Z,2.25
2023-03-24T14:49:30.382Z,1.70
2023-03-24T14:52:08.717Z,1.50
2023-03-24T14:54:59.529Z,1.25
2023-03-24T14:57:35.123Z,1.27
2023-03-24T15:00:18.923Z,1.23
2023-03-24T15:02:53.012Z,1.65
2023-03-24T15:05:31.545Z,1.55
2023-03-24T15:08:23.778Z,1.67
2023-03-24T15:10:58.254Z,1.42
2023-03-24T15:13:43.422Z,1.63
2023-03-24T15:16:13.047Z,1.42
2023-03-24T15:19:06.063Z,1.25
2023-03-24T15:21:47.092Z,1.60
2023-03-24T15:24:36.209Z,1.30
2023-03-24T15:27:06.558Z,1.30
2023-03-24T15:29:39.241Z,1.27
2023-03-24T15:32:07.333Z,1.25
2023-03-24T15:34:34.085Z,1.60
2023-03-24T15:37:07.892Z,1.27
2023-03-24T15:42:09.137Z,1.48
2023-03-24T15:44:40.191Z,1.27
2023-03-24T15:47:21.545Z,1.65
2023-03-24T15:49:54.300Z,1.30
2023-03-24T15:52:37.660Z,1.30
2023-03-24T15:55:34.959Z,1.30
2023-03-24T15:58:23.696Z,1.17
2023-03-24T16:00:57.237Z,1.10
2023-03-24T16:03:26.621Z,1.20
2023-03-24T16:05:56.132Z,1.27
2023-03-24T16:08:39.714Z,1.13
2023-03-24T16:11:13.110Z,1.20
2023-03-24T16:13:43.514Z,1.52
2023-03-24T16:16:13.474Z,1.10
2023-03-24T16:18:47.070Z,1.35
2023-03-24T16:21:26.269Z,1.77
2023-03-24T16:23:55.725Z,1.17
2023-03-24T16:26:29.296Z,1.42
2023-03-24T16:29:13.419Z,2.03
2023-03-24T16:31:40.220Z,1.45
2023-03-24T16:34:06.971Z,1.38
2023-03-24T16:36:34.030Z,1.52
2023-03-24T16:39:01.697Z,1.48
2023-03-24T16:41:29.156Z,1.30
2023-03-24T16:43:55.976Z,1.50
2023-03-24T16:46:32.209Z,1.70
2023-03-24T16:49:02.972Z,1.38
2023-03-24T16:51:29.932Z,1.65
2023-03-24T16:53:57.118Z,1.45
2023-03-24T16:56:24.301Z,1.30
2023-03-24T16:58:53.249Z,1.58
2023-03-24T17:01:40.411Z,1.90
2023-03-24T17:04:19.081Z,1.88
2023-03-24T17:06:50.833Z,2.10
2023-03-24T17:09:17.768Z,2.15
2023-03-24T17:11:52.124Z,2.00
2023-03-24T17:14:19.082Z,1.17
2023-03-24T17:16:49.136Z,1.60
2023-03-24T17:19:19.526Z,1.10
2023-03-24T17:22:02.165Z,1.88
2023-03-24T17:24:35.732Z,1.25
2023-03-24T17:27:03.380Z,1.50
2023-03-24T17:29:30.172Z,1.80
2023-03-24T17:31:56.933Z,1.85
2023-03-24T17:34:23.737Z,1.92
2023-03-24T17:36:51.611Z,1.73
2023-03-24T17:39:20.993Z,2.00
2023-03-24T17:41:48.157Z,1.98
2023-03-24T17:44:15.420Z,1.77
2023-03-24T17:46:42.885Z,2.00
2023-03-24T17:49:09.671Z,2.33
2023-03-24T17:51:36.459Z,2.40
2023-03-24T17:54:04.179Z,2.47
2023-03-24T17:56:31.390Z,2.55
2023-03-24T17:59:02.226Z,2.40
2023-03-24T18:01:30.124Z,2.95
2023-03-24T18:03:58.003Z,2.63
2023-03-24T18:06:25.205Z,2.30
2023-03-24T18:08:52.357Z,2.42
2023-03-24T18:11:19.976Z,4.85
2023-03-24T18:13:47.584Z,5.10
2023-03-24T18:16:21.731Z,6.25
2023-03-24T18:18:50.649Z,6.38
2023-03-24T18:21:18.979Z,5.22
2023-03-24T18:23:46.763Z,5.45
2023-03-24T18:26:16.057Z,5.35
2023-03-24T18:28:45.691Z,4.47
2023-03-24T18:31:18.833Z,4.45
2023-03-24T18:33:48.843Z,4.55
2023-03-24T18:36:21.199Z,4.03
2023-03-24T18:38:49.337Z,4.07
2023-03-24T18:41:18.080Z,4.20
2023-03-24T18:43:47.902Z,4.05
2023-03-24T18:46:16.270Z,4.13
2023-03-24T18:48:43.918Z,4.82
2023-03-24T18:51:12.056Z,4.88
2023-03-24T18:53:39.962Z,5.15
2023-03-24T18:56:08.513Z,5.22
2023-03-24T18:58:38.134Z,4.82
2023-03-24T19:01:11.357Z,4.35
2023-03-24T19:03:40.853Z,4.75
2023-03-24T19:06:11.828Z,4.43
2023-03-24T19:08:45.820Z,4.03
2023-03-24T19:11:14.605Z,4.45
2023-03-24T19:13:43.976Z,4.38
2023-03-24T19:16:12.347Z,3.75
2023-03-24T19:18:40.347Z,4.22
2023-03-24T19:21:07.855Z,4.10
2023-03-24T19:23:35.459Z,3.75
2023-03-24T19:26:05.867Z,3.80
2023-03-24T19:28:35.600Z,3.55
2023-03-24T19:31:10.756Z,3.83
2023-03-24T19:36:07.414Z,3.83
2023-03-24T19:38:35.584Z,3.60
2023-03-24T19:41:08.863Z,3.15
2023-03-24T19:43:36.777Z,2.80
2023-03-24T19:46:05.139Z,2.97
2023-03-24T19:48:32.646Z,2.42
2023-03-24T19:50:59.642Z,3.20
2023-03-24T19:53:26.723Z,2.67
2023-03-24T19:55:57.739Z,2.45
2023-03-24T19:58:24.741Z,2.90
2023-03-24T20:00:51.974Z,2.25
2023-03-24T20:03:19.262Z,2.58
2023-03-24T20:05:46.284Z,2.65
2023-03-24T20:08:13.145Z,2.25
2023-03-24T20:10:40.208Z,2.17
2023-03-24T20:13:10.405Z,2.25
2023-03-24T20:15:37.578Z,2.65
2023-03-24T20:18:04.611Z,2.20
2023-03-24T20:20:32.269Z,2.45
2023-03-24T20:22:59.013Z,2.20
2023-03-24T20:25:25.841Z,1.95
2023-03-24T20:27:52.614Z,1.90
2023-03-24T20:30:20.594Z,1.73
2023-03-24T20:32:48.245Z,1.60
2023-03-24T20:35:15.936Z,1.50
2023-03-24T20:37:43.104Z,1.50
2023-03-24T20:40:10.818Z,1.60
2023-03-24T20:42:38.302Z,1.13
2023-03-24T20:45:07.678Z,1.60
2023-03-24T20:47:35.639Z,1.70
2023-03-24T20:50:02.607Z,1.60
2023-03-24T20:52:29.674Z,1.10
2023-03-24T20:54:56.590Z,1.20
2023-03-24T20:57:25.691Z,1.10
2023-03-24T20:59:52.647Z,1.17
2023-03-24T21:02:20.198Z,0.93
2023-03-24T21:04:47.165Z,1.25
2023-03-24T21:07:14.193Z,1.52
2023-03-24T21:09:40.994Z,1.45
2023-03-24T21:12:08.047Z,1.60
2023-03-24T21:14:34.841Z,1.65
2023-03-24T21:17:01.762Z,1.73
2023-03-24T21:19:28.966Z,1.95
2023-03-24T21:21:56.227Z,1.60
2023-03-24T21:24:24.226Z,1.60
2023-03-24T21:26:55.184Z,1.80
2023-03-24T21:29:22.605Z,2.42
2023-03-24T21:31:49.950Z,2.22
2023-03-24T21:34:17.072Z,1.60
2023-03-24T21:36:43.859Z,2.70
2023-03-24T21:39:11.990Z,2.35
2023-03-24T21:41:39.865Z,2.25
2023-03-24T21:44:09.178Z,2.10
2023-03-24T21:46:36.959Z,2.13
2023-03-24T21:49:06.331Z,2.35
2023-03-24T21:51:34.706Z,2.67
2023-03-24T21:54:04.478Z,1.92
2023-03-24T21:56:33.494Z,1.70
2023-03-24T21:59:01.614Z,2.00
2023-03-24T22:01:29.289Z,2.28
2023-03-24T22:03:58.846Z,2.13
2023-03-24T22:06:28.857Z,2.00
2023-03-24T22:08:58.805Z,2.00
2023-03-24T22:11:26.208Z,2.03
2023-03-24T22:13:56.046Z,1.98
2023-03-24T22:16:22.823Z,2.20
2023-03-24T22:18:49.930Z,2.38
2023-03-24T22:21:17.121Z,2.25
2023-03-24T22:23:43.846Z,2.78
2023-03-24T22:26:16.877Z,3.35
2023-03-24T22:28:44.121Z,3.75
2023-03-24T22:31:17.538Z,2.63
2023-03-24T22:33:44.996Z,3.15
2023-03-24T22:36:12.110Z,2.72
2023-03-24T22:38:38.970Z,2.38
2023-03-24T22:41:10.338Z,3.20
2023-03-24T22:43:39.792Z,3.10
2023-03-24T22:46:07.557Z,3.00
2023-03-24T22:48:37.201Z,2.72
2023-03-24T22:51:04.372Z,3.20
2023-03-24T22:53:33.504Z,2.67
2023-03-24T22:56:00.286Z,2.85
2023-03-24T22:58:27.118Z,2.72
2023-03-24T23:00:56.583Z,2.85
2023-03-24T23:03:23.545Z,2.85
2023-03-24T23:05:51.020Z,2.70
2023-03-24T23:08:19.132Z,2.33
2023-03-24T23:10:47.545Z,2.85
2023-03-24T23:13:17.024Z,2.45
2023-03-24T23:15:44.427Z,2.00
2023-03-24T23:18:12.047Z,1.98
2023-03-24T23:20:39.522Z,2.70
2023-03-24T23:23:07.160Z,2.30
2023-03-24T23:25:40.405Z,3.10
2023-03-24T23:28:07.248Z,2.60
2023-03-24T23:30:34.058Z,2.38
2023-03-24T23:33:02.762Z,2.08
2023-03-24T23:35:30.711Z,1.95
2023-03-24T23:37:57.589Z,2.00
2023-03-24T23:40:24.328Z,1.48
2023-03-24T23:42:51.434Z,1.67
2023-03-24T23:45:22.021Z,1.73
2023-03-24T23:47:51.803Z,1.70
2023-03-24T23:50:19.910Z,1.45
2023-03-24T23:52:46.948Z,1.75
2023-03-24T23:55:17.815Z,1.75
2023-03-24T23:57:45.435Z,1.70
